Howe, IN (46746)

5:00 PM EDT on September 27, 2016 (GMT -0400)
Kirsch Municipal | | Change Station

Elev 925 ft 41.82 °N, 85.44 °W | Updated 5 minutes ago

Clear
Clear
68 °F
Feels Like 68 °F
N
14
Wind Variable Wind from WSW
Gusts 18 mph

Today
High -- | Low -- °F
--% Chance of Precip.
Yesterday
High -- | Low -- °F
Precip. -- in
Pressure 29.74 in
Visibility 10.0 miles
Clouds Clear
Dew Point 32 °F
Humidity 27%
Rainfall 0.00 in
Snow Depth Not available.
7:34 AM 7:29 PM
Waning Crescent, 9% visible
METAR KIRS 272055Z AUTO 25012G16KT 10SM CLR 20/00 A2974 RMK AO2 T01990001
Pressure 29.74 in
Visibility 10.0 miles
Clouds Clear
Dew Point 32 °F
Humidity 27%
Rainfall 0.00 in
Snow Depth Not available.
7:34 AM 7:29 PM
Waning Crescent, 9% visible
METAR KIRS 272055Z AUTO 25012G16KT 10SM CLR 20/00 A2974 RMK AO2 T01990001

10-Day Weather Forecast

Almanac

Astronomy

Sep. 27, 2016 Rise Set
Actual Time
Civil Twilight
Nautical Twilight
Astronomical Twilight
Moon
Length of Visible Light
Length of Day
Tomorrow will be .
, % of the Moon is Illuminated

Today's Extremes

State Highs State Lows

Community

WunderPhotos

Upload Photos

1,942,168 photos uploaded!

WunderBlog® & News

Nearby

Air Quality

  Air Quality AQ Index Pollutant
Not available.

Snow Depth

Station Depth Elevation

Earthquake Activity

City Distance Mag. Time & Date
Minimum magnitude displayed is 2.5.

Coastal Water Temperatures

Place Temperature

Stations

Nearby Weather Stations

Station Location Temp. Windchill Dew Point Humidity Wind Precip. Elev Updated Type
                   

Watches & Warnings

There are currently no watches in effect.